aviador You're here:

NWWW Decoded Metar

NOUMEA in NEW CALEDONIA
Report Time2017-07-25 20:30:00
UTC Time2017-07-25 20:42:53
Flight Rules vfr VFR
Wind140° at 02 kt
W.Decomp.*RWY 11: 1.9 kt HW 0.6 kt RCW
W.Rank140° ranks 2
Current wind is below 140° avg. (9.9)
Visibility9999 m
Phenomena:N/A
Clouds:Few 052 Hf
Overcast 062 Hf
Expected CloudBase > 800 ft AGL from Temp-Dew spread
Ceiling6,200 ft
Temp13°C (ISA -2)
Dew Point11°C (88% RH)
AAT12.6°C
QNH1019 hPa
Density Alt-200 ft
Elevation52 ft
Report Wrong Elevation
Raw Report
METAR NWWW 252030Z AUTO 14002KT 9999 FEW052 OVC062 13/11 Q1019 NOSIG=

Extra information for NWWW:More info

Metar Taf Metar & Taf Last 4 Metars F.Rules Stats Wind Profile Meteogram Temp Stats Airport Information Weather charts Add Link Nearby VenuesMetar ALERT Operation Metar Decoded Social comments